Time;durP1;ratioP1;P1;durP2;ratioP2;P2;SDS_P1;SDS_P2;PMS_P1;PMS_P2;Temp;Humidity;BMP_temperature;BMP_pressure;BME280_temperature;BME280_humidity;BME280_pressure;Samples;Min_cycle;Max_cycle;Signal;HPM_P1;HPM_P2
2023/04/20 00:01:53;;;;;;;15.55;8.95;;;;;;;13.83;100.00;99431.94;5038798;28;20038;-66
2023/04/20 00:04:19;;;;;;;40.35;16.60;;;;;;;13.89;100.00;99430.34;5038642;28;20558;-66
2023/04/20 00:06:44;;;;;;;22.63;11.35;;;;;;;13.97;100.00;99432.88;5038586;28;20228;-66
2023/04/20 00:09:14;;;;;;;20.95;10.35;;;;;;;13.87;100.00;99417.25;5038356;28;20088;-66
2023/04/20 00:11:39;;;;;;;16.83;10.55;;;;;;;13.88;100.00;99418.88;5037755;28;20037;-66
2023/04/20 00:14:05;;;;;;;11.43;8.55;;;;;;;13.79;100.00;99409.38;5037508;28;20032;-66
2023/04/20 00:16:31;;;;;;;14.32;8.43;;;;;;;13.79;100.00;99420.03;5037678;28;20080;-66
2023/04/20 00:18:58;;;;;;;18.45;10.93;;;;;;;13.50;100.00;99412.97;5037864;28;20080;-66
2023/04/20 00:21:24;;;;;;;17.05;11.27;;;;;;;13.49;100.00;99413.16;5037675;28;20315;-66
2023/04/20 00:23:50;;;;;;;14.07;10.20;;;;;;;13.30;100.00;99409.25;5038029;28;20041;-66
2023/04/20 00:26:16;;;;;;;15.50;10.27;;;;;;;13.50;100.00;99409.47;5037990;28;20068;-66
2023/04/20 00:28:42;;;;;;;13.68;8.95;;;;;;;13.66;100.00;99406.59;5037707;28;20211;-66
2023/04/20 00:31:07;;;;;;;15.02;9.38;;;;;;;13.72;100.00;99406.66;5037840;28;20055;-66
2023/04/20 00:33:33;;;;;;;11.13;8.55;;;;;;;13.72;100.00;99419.16;5037695;28;20094;-66
2023/04/20 00:35:58;;;;;;;10.48;7.85;;;;;;;13.74;100.00;99412.63;5035939;28;20229;-66
2023/04/20 00:38:24;;;;;;;30.55;11.13;;;;;;;13.79;100.00;99405.91;5027143;28;20223;-66
2023/04/20 00:40:52;;;;;;;15.30;8.02;;;;;;;13.79;100.00;99420.03;5037925;28;20040;-66
2023/04/20 00:43:20;;;;;;;26.40;11.60;;;;;;;13.85;100.00;99403.31;5037200;28;20339;-66
2023/04/20 00:45:46;;;;;;;10.23;7.45;;;;;;;13.84;100.00;99412.28;5037046;28;20231;-66
2023/04/20 00:48:11;;;;;;;12.23;7.43;;;;;;;13.78;100.00;99409.56;5037685;28;20053;-66
2023/04/20 00:50:38;;;;;;;10.25;7.03;;;;;;;13.70;100.00;99414.00;5036509;28;20063;-66
2023/04/20 00:53:05;;;;;;;10.88;7.80;;;;;;;13.70;100.00;99400.72;5038095;28;20029;-66
2023/04/20 00:55:31;;;;;;;11.85;7.45;;;;;;;13.78;100.00;99413.06;5037341;28;20033;-66
2023/04/20 00:57:57;;;;;;;9.57;6.50;;;;;;;13.77;100.00;99407.94;5037265;28;20086;-66
2023/04/20 01:00:22;;;;;;;11.30;7.25;;;;;;;13.39;100.00;99419.59;5037250;28;20057;-66
2023/04/20 01:02:48;;;;;;;16.35;9.73;;;;;;;13.08;100.00;99405.72;5037691;28;20091;-66
2023/04/20 01:05:13;;;;;;;13.45;8.02;;;;;;;12.99;100.00;99406.81;5038991;28;20319;-66
2023/04/20 01:07:39;;;;;;;9.90;7.60;;;;;;;13.18;100.00;99411.59;5041731;28;20064;-66
2023/04/20 01:10:06;;;;;;;11.30;6.95;;;;;;;13.32;100.00;99412.56;5041106;28;20033;-66
2023/04/20 01:12:32;;;;;;;10.15;6.50;;;;;;;13.32;100.00;99408.06;5041809;28;20080;-66
2023/04/20 01:14:57;;;;;;;10.25;7.38;;;;;;;13.29;100.00;99408.44;5040961;28;20103;-66
2023/04/20 01:17:23;;;;;;;21.50;9.75;;;;;;;13.35;100.00;99406.88;5041406;28;20049;-66
2023/04/20 01:19:49;;;;;;;11.85;7.35;;;;;;;13.34;100.00;99400.72;5041117;28;20377;-66
2023/04/20 01:22:19;;;;;;;12.50;7.95;;;;;;;13.35;100.00;99399.72;5041837;28;20467;-66
2023/04/20 01:24:44;;;;;;;12.18;7.65;;;;;;;13.27;100.00;99391.03;5041049;28;20068;-66
2023/04/20 01:27:11;;;;;;;11.05;8.23;;;;;;;13.32;100.00;99392.13;5024955;28;20327;-66
2023/04/20 01:29:36;;;;;;;11.73;7.65;;;;;;;13.33;100.00;99395.59;5021090;28;20049;-66
2023/04/20 01:32:03;;;;;;;11.55;7.63;;;;;;;13.30;100.00;99388.00;5020504;28;20100;-66
2023/04/20 01:34:28;;;;;;;9.30;6.70;;;;;;;13.28;100.00;99390.00;5020433;28;20042;-66
2023/04/20 01:36:54;;;;;;;11.15;7.45;;;;;;;13.28;100.00;99393.50;5021494;28;20049;-66
2023/04/20 01:39:19;;;;;;;10.70;7.03;;;;;;;13.21;100.00;99392.59;5020319;28;20061;-66
2023/04/20 01:41:45;;;;;;;12.05;7.63;;;;;;;13.07;100.00;99388.94;5021880;28;20338;-66
2023/04/20 01:44:10;;;;;;;11.32;8.15;;;;;;;13.07;100.00;99394.25;5020568;28;20036;-66
2023/04/20 01:46:39;;;;;;;12.93;8.68;;;;;;;13.02;100.00;99387.84;5019949;28;20050;-66
2023/04/20 01:49:05;;;;;;;12.48;8.55;;;;;;;13.02;100.00;99385.19;5030908;28;20029;-66
2023/04/20 01:51:32;;;;;;;13.82;8.88;;;;;;;13.01;100.00;99378.22;5039622;28;20091;-66
2023/04/20 01:53:58;;;;;;;11.88;8.27;;;;;;;12.96;100.00;99372.66;5025606;28;20325;-66
2023/04/20 01:56:24;;;;;;;16.08;9.52;;;;;;;12.90;100.00;99373.38;5020900;28;20078;-66
2023/04/20 01:58:50;;;;;;;14.65;9.18;;;;;;;12.84;100.00;99374.97;5021000;28;20089;-66
2023/04/20 02:01:15;;;;;;;15.52;9.77;;;;;;;12.71;100.00;99353.53;5020994;28;20034;-64
2023/04/20 02:03:41;;;;;;;13.18;9.20;;;;;;;12.70;100.00;99373.97;5019933;28;20393;-64
2023/04/20 02:06:07;;;;;;;16.25;10.57;;;;;;;12.68;100.00;99367.19;5018370;28;20060;-66
2023/04/20 02:08:33;;;;;;;15.50;9.95;;;;;;;12.69;100.00;99372.31;5019632;28;20044;-63
2023/04/20 02:10:58;;;;;;;15.63;10.35;;;;;;;12.71;100.00;99375.63;5020699;28;20042;-63
2023/04/20 02:13:24;;;;;;;17.05;11.00;;;;;;;12.71;100.00;99377.44;5019662;28;20030;-66
2023/04/20 02:15:50;;;;;;;15.43;10.77;;;;;;;12.65;100.00;99378.19;5019419;28;20042;-65
2023/04/20 02:18:15;;;;;;;16.20;10.98;;;;;;;12.73;100.00;99372.78;5018989;28;20149;-63
2023/04/20 02:20:44;;;;;;;14.57;9.93;;;;;;;12.77;100.00;99374.88;5018941;28;20041;-66
2023/04/20 02:23:10;;;;;;;12.77;9.50;;;;;;;12.81;100.00;99377.16;5018835;28;20343;-68
2023/04/20 02:25:36;;;;;;;12.65;9.40;;;;;;;12.81;100.00;99367.34;5019614;28;20053;-68
2023/04/20 02:28:01;;;;;;;13.13;9.32;;;;;;;12.82;100.00;99374.31;5019651;28;20232;-68
2023/04/20 02:30:27;;;;;;;14.43;9.52;;;;;;;12.87;100.00;99368.44;5017981;28;20072;-66
2023/04/20 02:32:52;;;;;;;12.82;9.40;;;;;;;12.91;100.00;99375.88;5018532;28;20045;-66
2023/04/20 02:35:18;;;;;;;15.25;10.32;;;;;;;12.94;100.00;99374.66;5019346;28;20067;-68
2023/04/20 02:37:45;;;;;;;14.15;9.25;;;;;;;12.88;100.00;99378.91;5019069;28;20053;-68
2023/04/20 02:40:11;;;;;;;12.30;9.55;;;;;;;12.81;100.00;99377.16;5018894;28;20057;-68
2023/04/20 02:42:37;;;;;;;13.50;9.68;;;;;;;12.76;100.00;99388.34;5019808;28;20061;-68
2023/04/20 02:45:03;;;;;;;13.73;10.07;;;;;;;12.78;100.00;99381.00;5019899;28;20312;-66
2023/04/20 02:47:28;;;;;;;15.77;9.88;;;;;;;12.76;100.00;99380.38;5019151;28;20343;-67
2023/04/20 02:49:54;;;;;;;14.43;10.52;;;;;;;12.84;100.00;99376.78;5020374;28;20034;-66
2023/04/20 02:52:19;;;;;;;15.68;10.65;;;;;;;12.83;100.00;99375.97;5020165;28;20096;-66
2023/04/20 02:54:45;;;;;;;19.27;11.00;;;;;;;12.90;100.00;99373.38;5019070;28;20038;-66
2023/04/20 02:57:10;;;;;;;16.05;11.00;;;;;;;12.93;100.00;99370.38;5019036;28;20045;-66
2023/04/20 02:59:36;;;;;;;16.10;11.55;;;;;;;12.96;100.00;99370.81;5019157;28;20328;-69
2023/04/20 03:02:02;;;;;;;13.75;10.73;;;;;;;12.91;100.00;99386.50;5020417;28;20363;-66
2023/04/20 03:04:29;;;;;;;15.02;11.40;;;;;;;12.96;100.00;99376.13;5018362;28;20045;-67
2023/04/20 03:06:55;;;;;;;14.68;11.18;;;;;;;12.93;100.00;99384.47;5018465;28;20088;-63
2023/04/20 03:09:21;;;;;;;14.57;10.82;;;;;;;12.91;100.00;99380.34;5019246;28;20033;-65
2023/04/20 03:11:48;;;;;;;13.73;10.35;;;;;;;12.65;100.00;99378.19;5019636;28;20034;-65
2023/04/20 03:14:13;;;;;;;17.38;11.57;;;;;;;12.86;100.00;99388.06;5019689;28;20093;-65
2023/04/20 03:16:40;;;;;;;18.08;11.73;;;;;;;12.98;100.00;99383.91;5019072;28;20084;-65
2023/04/20 03:19:05;;;;;;;20.00;12.45;;;;;;;13.12;98.14;99391.03;5021224;28;20262;-67
2023/04/20 03:21:31;;;;;;;21.00;12.70;;;;;;;13.20;97.49;99382.97;5027771;28;20096;-67
2023/04/20 03:23:57;;;;;;;18.05;11.63;;;;;;;13.19;97.15;99389.31;5020507;28;20060;-67
2023/04/20 03:26:23;;;;;;;21.02;13.45;;;;;;;13.29;97.83;99395.16;5018818;28;20033;-65
2023/04/20 03:28:49;;;;;;;25.13;14.20;;;;;;;13.27;96.86;99394.50;5018647;28;20060;-65
2023/04/20 03:31:15;;;;;;;23.50;14.68;;;;;;;13.23;96.10;99390.59;5018887;28;20048;-65
2023/04/20 03:33:40;;;;;;;21.90;12.57;;;;;;;12.93;96.32;99386.31;5019551;28;20279;-65
2023/04/20 03:36:06;;;;;;;22.30;13.13;;;;;;;12.89;96.99;99390.34;5018617;28;20335;-65
2023/04/20 03:38:32;;;;;;;15.80;11.60;;;;;;;12.87;97.30;99387.88;5018286;28;20157;-65
2023/04/20 03:40:57;;;;;;;14.70;10.88;;;;;;;12.83;97.88;99389.25;5018387;28;20327;-65
2023/04/20 03:43:23;;;;;;;18.95;11.73;;;;;;;12.74;98.39;99380.56;5019508;28;20068;-65
2023/04/20 03:45:48;;;;;;;14.07;10.88;;;;;;;12.79;98.52;99385.31;5021374;28;20299;-65
2023/04/20 03:48:13;;;;;;;15.45;10.65;;;;;;;12.88;98.29;99401.97;5038676;28;20040;-67
2023/04/20 03:50:39;;;;;;;17.17;11.20;;;;;;;12.83;97.61;99386.59;5037652;28;20046;-67
2023/04/20 03:53:04;;;;;;;14.63;9.93;;;;;;;12.64;97.67;99395.94;5038254;28;20207;-67
2023/04/20 03:55:30;;;;;;;15.10;10.55;;;;;;;12.36;99.45;99390.41;5038278;28;20029;-68
2023/04/20 03:57:55;;;;;;;15.73;11.32;;;;;;;12.47;99.30;99389.16;5038403;28;20159;-68
2023/04/20 04:00:21;;;;;;;16.20;10.52;;;;;;;12.43;100.00;99386.03;5038306;28;20052;-68
2023/04/20 04:02:46;;;;;;;12.75;10.30;;;;;;;12.43;100.00;99394.00;5038442;28;20045;-68
2023/04/20 04:05:12;;;;;;;16.05;11.07;;;;;;;12.49;100.00;99389.00;5037650;28;20036;-68
2023/04/20 04:07:37;;;;;;;15.63;10.70;;;;;;;12.27;100.00;99396.81;5038134;28;20048;-68
2023/04/20 04:10:04;;;;;;;17.73;11.07;;;;;;;11.87;100.00;99394.53;5038057;28;20338;-68
2023/04/20 04:12:30;;;;;;;17.45;11.98;;;;;;;11.89;100.00;99397.84;5038215;28;20424;-68
2023/04/20 04:14:55;;;;;;;15.10;11.02;;;;;;;12.10;100.00;99405.94;5038092;28;20045;-68
2023/04/20 04:17:21;;;;;;;14.57;11.40;;;;;;;12.10;100.00;99408.59;5038038;28;20057;-68
2023/04/20 04:19:46;;;;;;;15.23;10.88;;;;;;;12.34;100.00;99404.88;5036447;28;20239;-68
2023/04/20 04:22:11;;;;;;;14.85;10.85;;;;;;;12.45;100.00;99402.59;5036990;28;20331;-68
2023/04/20 04:24:37;;;;;;;16.92;10.82;;;;;;;12.55;100.00;99398.88;5036892;28;20033;-68
2023/04/20 04:27:06;;;;;;;18.67;11.65;;;;;;;12.62;100.00;99410.44;5036828;28;20216;-68
2023/04/20 04:29:37;;;;;;;16.98;11.52;;;;;;;12.64;100.00;99409.22;5037834;28;20370;-68
2023/04/20 04:32:04;;;;;;;17.63;12.40;;;;;;;12.68;100.00;99409.69;5037986;28;20367;-68
2023/04/20 04:34:33;;;;;;;15.13;11.05;;;;;;;12.74;99.86;99406.31;5037631;28;20040;-68
2023/04/20 04:37:00;;;;;;;16.73;11.32;;;;;;;12.73;100.00;99409.97;5038257;28;20100;-68
2023/04/20 04:39:26;;;;;;;14.75;11.10;;;;;;;12.61;100.00;99406.13;5038883;28;20029;-68
2023/04/20 04:41:51;;;;;;;15.70;12.38;;;;;;;12.60;100.00;99420.41;5044204;28;20049;-68
2023/04/20 04:44:17;;;;;;;17.70;12.68;;;;;;;12.56;100.00;99405.84;5044414;28;20033;-68
2023/04/20 04:46:44;;;;;;;16.80;11.90;;;;;;;12.74;100.00;99415.09;5045242;28;20041;-68
2023/04/20 04:49:10;;;;;;;14.63;11.30;;;;;;;12.55;99.42;99417.47;5044293;28;20041;-68
2023/04/20 04:51:35;;;;;;;13.77;11.02;;;;;;;12.73;100.00;99415.28;5044661;28;20094;-68
2023/04/20 04:54:01;;;;;;;14.35;9.85;;;;;;;12.83;99.13;99413.16;5044463;28;20246;-68
2023/04/20 04:56:27;;;;;;;15.05;9.82;;;;;;;12.94;98.70;99411.88;5044349;28;20052;-68
2023/04/20 04:58:53;;;;;;;12.02;9.82;;;;;;;13.09;100.00;99416.16;5044407;28;20203;-68
2023/04/20 05:01:18;;;;;;;11.95;9.20;;;;;;;13.35;99.65;99415.66;5044758;28;20045;-68
2023/04/20 05:03:43;;;;;;;11.93;9.85;;;;;;;13.59;98.70;99408.38;5044082;28;20047;-68
2023/04/20 05:06:09;;;;;;;12.68;9.45;;;;;;;13.81;96.69;99422.50;5043116;28;20057;-68
2023/04/20 05:08:34;;;;;;;11.52;9.63;;;;;;;14.01;95.86;99419.00;5044546;28;20038;-68
2023/04/20 05:11:00;;;;;;;13.07;9.50;;;;;;;14.18;96.32;99424.88;5043986;28;20056;-68
2023/04/20 05:13:25;;;;;;;16.40;10.45;;;;;;;14.37;96.06;99428.69;5044229;28;20033;-68
2023/04/20 05:15:51;;;;;;;13.98;9.68;;;;;;;14.50;95.54;99426.16;5044566;28;20037;-68
2023/04/20 05:18:16;;;;;;;14.23;9.55;;;;;;;14.69;94.77;99419.34;5043908;28;20243;-68
2023/04/20 05:20:42;;;;;;;12.15;9.52;;;;;;;14.72;94.49;99420.78;5030982;28;20213;-68
2023/04/20 05:23:08;;;;;;;14.18;9.90;;;;;;;14.79;94.45;99414.47;5044087;28;20100;-68
2023/04/20 05:25:34;;;;;;;13.57;10.13;;;;;;;14.83;94.41;99420.22;5044180;28;20056;-68
2023/04/20 05:27:59;;;;;;;14.95;10.23;;;;;;;14.74;93.82;99424.91;5024727;28;20328;-68
2023/04/20 05:30:26;;;;;;;13.27;10.55;;;;;;;14.65;93.41;99418.06;5025054;28;20168;-68
2023/04/20 05:32:51;;;;;;;14.70;10.25;;;;;;;14.53;95.10;99415.09;5024657;28;20318;-68
2023/04/20 05:35:17;;;;;;;13.13;10.02;;;;;;;14.35;95.56;99422.75;5023491;28;20248;-68
2023/04/20 05:37:42;;;;;;;12.73;10.25;;;;;;;14.29;95.86;99413.69;5024923;28;20378;-68
2023/04/20 05:40:08;;;;;;;12.57;9.70;;;;;;;14.30;95.60;99422.50;5024326;28;20038;-68
2023/04/20 05:42:33;;;;;;;12.82;9.90;;;;;;;14.30;95.07;99419.84;5024448;28;20096;-68
2023/04/20 05:44:59;;;;;;;13.48;9.75;;;;;;;14.29;94.47;99419.00;5024306;28;20037;-68
2023/04/20 05:47:26;;;;;;;12.88;9.95;;;;;;;14.31;93.59;99426.81;5023463;28;20041;-68
2023/04/20 05:49:52;;;;;;;13.90;9.95;;;;;;;14.31;93.75;99429.47;5023285;28;20072;-68
2023/04/20 05:52:17;;;;;;;13.02;10.50;;;;;;;14.38;93.87;99430.34;5018857;28;20038;-68
2023/04/20 05:54:43;;;;;;;15.23;10.63;;;;;;;14.49;94.50;99431.69;5019130;28;20038;-68
2023/04/20 05:57:08;;;;;;;12.70;10.15;;;;;;;14.53;93.97;99427.59;5021475;28;20041;-68
2023/04/20 05:59:34;;;;;;;12.65;9.75;;;;;;;14.58;93.49;99433.22;5020371;28;20051;-68
2023/04/20 06:02:00;;;;;;;11.50;8.95;;;;;;;14.48;92.07;99433.53;5021335;28;20038;-68
2023/04/20 06:04:25;;;;;;;12.10;8.75;;;;;;;14.55;92.64;99434.38;5020205;28;20087;-68
2023/04/20 06:06:51;;;;;;;14.20;9.23;;;;;;;14.61;90.85;99435.47;5020474;28;20037;-68
2023/04/20 06:09:17;;;;;;;12.00;8.38;;;;;;;14.67;90.57;99427.53;5019504;28;20037;-68
2023/04/20 06:11:42;;;;;;;7.93;6.80;;;;;;;14.64;87.04;99432.44;5019791;28;20038;-68
2023/04/20 06:14:10;;;;;;;11.15;7.80;;;;;;;14.60;87.06;99434.66;5019397;28;20030;-68
2023/04/20 06:16:36;;;;;;;12.20;8.45;;;;;;;14.65;88.23;99436.72;5021037;28;20107;-68
2023/04/20 06:19:02;;;;;;;9.23;7.47;;;;;;;14.58;87.81;99434.03;5020974;28;20385;-68
2023/04/20 06:21:28;;;;;;;11.70;7.60;;;;;;;14.71;87.85;99432.47;5019492;28;20029;-68
2023/04/20 06:23:53;;;;;;;11.20;8.50;;;;;;;14.75;88.34;99431.88;5020208;28;20269;-68
2023/04/20 06:26:19;;;;;;;10.05;7.78;;;;;;;14.87;87.70;99440.13;5020840;28;20312;-68
2023/04/20 06:28:46;;;;;;;11.80;8.13;;;;;;;14.96;87.08;99439.78;5019505;28;20037;-68
2023/04/20 06:31:11;;;;;;;10.05;8.63;;;;;;;15.04;87.55;99438.78;5020087;28;20058;-68
2023/04/20 06:33:37;;;;;;;10.88;8.00;;;;;;;15.05;85.60;99439.63;5019589;28;20076;-68
2023/04/20 06:36:06;;;;;;;8.80;7.90;;;;;;;15.13;85.69;99434.94;5020641;28;20283;-68
2023/04/20 06:38:31;;;;;;;10.70;7.63;;;;;;;15.21;84.10;99440.09;5020136;28;20041;-68
2023/04/20 06:41:00;;;;;;;9.85;7.93;;;;;;;15.28;84.25;99440.94;5021867;28;20026;-68
2023/04/20 06:43:26;;;;;;;12.15;9.55;;;;;;;15.45;83.81;99435.25;5030412;28;20095;-68
2023/04/20 06:45:52;;;;;;;11.15;8.60;;;;;;;15.65;83.19;99441.53;5033435;28;20105;-68
2023/04/20 06:48:17;;;;;;;10.90;8.23;;;;;;;15.73;83.26;99448.50;5030140;28;20083;-68
2023/04/20 06:50:46;;;;;;;10.40;8.38;;;;;;;15.73;79.87;99441.31;5032722;28;20104;-68
2023/04/20 06:53:11;;;;;;;9.32;7.45;;;;;;;15.75;79.39;99441.94;5031152;28;20295;-68
2023/04/20 06:55:37;;;;;;;8.50;7.18;;;;;;;16.05;80.17;99447.72;5033829;28;20037;-68
2023/04/20 06:58:02;;;;;;;10.02;7.03;;;;;;;16.34;78.78;99441.16;5030295;28;20040;-68
2023/04/20 07:00:28;;;;;;;9.13;6.60;;;;;;;16.45;77.17;99445.06;5032874;28;20037;-68
2023/04/20 07:02:53;;;;;;;9.45;7.18;;;;;;;16.35;77.18;99448.16;5030967;28;20057;-68
2023/04/20 07:05:19;;;;;;;10.10;6.95;;;;;;;16.51;76.92;99450.41;5032091;28;20260;-68
2023/04/20 07:07:45;;;;;;;9.43;6.78;;;;;;;16.75;75.90;99442.81;5032015;28;20230;-68
2023/04/20 07:10:12;;;;;;;10.23;7.53;;;;;;;16.73;74.57;99442.19;5032232;28;20030;-68
2023/04/20 07:12:39;;;;;;;8.98;7.32;;;;;;;16.84;73.59;99438.88;5026094;28;20420;-68
2023/04/20 07:15:06;;;;;;;7.55;6.78;;;;;;;17.11;76.18;99448.47;5032909;28;20108;-68
2023/04/20 07:17:32;;;;;;;9.57;7.45;;;;;;;17.45;75.69;99435.75;5028443;28;20034;-68
2023/04/20 07:20:04;;;;;;;7.80;6.55;;;;;;;17.65;71.97;99446.34;5031232;28;20036;-68
2023/04/20 07:22:30;;;;;;;7.88;7.07;;;;;;;17.94;72.69;99445.00;5029952;28;20105;-68
2023/04/20 07:24:56;;;;;;;8.13;7.00;;;;;;;18.00;71.34;99442.25;5028267;28;20033;-66
2023/04/20 07:27:21;;;;;;;8.85;6.93;;;;;;;18.01;68.12;99437.72;5030684;28;20053;-66
2023/04/20 07:29:47;;;;;;;9.50;7.30;;;;;;;17.66;69.85;99443.50;5030175;28;20037;-67
2023/04/20 07:32:13;;;;;;;11.68;7.40;;;;;;;17.77;69.18;99439.34;5031938;28;20061;-68
2023/04/20 07:34:39;;;;;;;8.45;6.57;;;;;;;17.47;68.94;99439.03;5028459;28;20045;-68
2023/04/20 07:37:04;;;;;;;11.50;7.13;;;;;;;17.88;69.05;99443.19;5029551;28;20044;-68
2023/04/20 07:39:30;;;;;;;7.57;6.75;;;;;;;18.08;69.74;99439.31;5030398;28;20038;-66
2023/04/20 07:41:56;;;;;;;11.05;7.15;;;;;;;18.31;71.27;99435.22;5027147;28;20061;-67
2023/04/20 07:44:21;;;;;;;9.48;7.18;;;;;;;18.57;70.58;99439.50;5030702;28;20319;-67
2023/04/20 07:46:48;;;;;;;9.98;7.32;;;;;;;18.55;68.07;99437.06;5030738;28;20320;-66
2023/04/20 07:49:14;;;;;;;7.45;6.65;;;;;;;18.74;67.18;99433.41;5029333;28;20041;-66
2023/04/20 07:51:39;;;;;;;7.95;6.75;;;;;;;18.83;67.78;99436.63;5032019;28;20147;-68
2023/04/20 07:54:05;;;;;;;7.72;6.57;;;;;;;18.94;67.07;99433.19;5030711;28;20642;-65
2023/04/20 07:56:31;;;;;;;8.05;6.85;;;;;;;19.07;65.91;99430.34;5030240;28;20116;-68
2023/04/20 07:58:56;;;;;;;9.82;7.22;;;;;;;19.05;66.15;99427.09;5029930;28;20025;-68
2023/04/20 08:01:24;;;;;;;8.32;7.30;;;;;;;19.21;67.44;99425.66;5029474;28;20096;-68
2023/04/20 08:03:50;;;;;;;9.38;7.03;;;;;;;19.10;65.89;99427.22;5029962;28;20044;-66
2023/04/20 08:06:15;;;;;;;7.65;6.85;;;;;;;19.07;65.05;99427.69;5031359;28;20038;-65
2023/04/20 08:08:41;;;;;;;10.63;7.35;;;;;;;19.18;64.42;99426.09;5028797;28;20057;-68
2023/04/20 08:11:07;;;;;;;8.43;7.40;;;;;;;19.23;65.60;99428.94;5030148;28;20033;-68
2023/04/20 08:13:32;;;;;;;7.57;6.88;;;;;;;19.38;62.76;99423.97;5027517;28;20048;-66
2023/04/20 08:15:58;;;;;;;7.97;6.20;;;;;;;19.19;62.24;99425.06;5029323;28;20042;-66
2023/04/20 08:18:24;;;;;;;8.48;6.53;;;;;;;19.04;63.13;99417.38;5030324;28;20209;-65
2023/04/20 08:20:50;;;;;;;9.30;7.30;;;;;;;19.28;66.19;99422.88;5028528;28;20025;-65
2023/04/20 08:23:15;;;;;;;7.63;6.82;;;;;;;19.34;63.22;99419.28;5030990;28;20186;-65
2023/04/20 08:25:41;;;;;;;8.30;6.97;;;;;;;19.42;62.94;99409.06;5031707;28;20037;-66
2023/04/20 08:28:07;;;;;;;9.27;7.25;;;;;;;19.43;62.96;99407.19;5031625;28;20033;-65
2023/04/20 08:30:33;;;;;;;10.73;8.07;;;;;;;19.53;64.16;99415.53;5030060;28;20033;-66
2023/04/20 08:32:58;;;;;;;13.90;7.88;;;;;;;19.71;64.79;99422.72;5030216;28;20045;-66
2023/04/20 08:35:24;;;;;;;8.23;7.30;;;;;;;19.37;61.69;99408.09;5028301;28;20037;-66
2023/04/20 08:37:49;;;;;;;9.70;7.57;;;;;;;19.55;64.18;99408.09;5030209;28;20037;-67
2023/04/20 08:40:18;;;;;;;8.30;7.50;;;;;;;19.76;63.96;99410.25;5030099;28;20030;-66
2023/04/20 08:42:44;;;;;;;8.60;7.40;;;;;;;19.79;62.71;99406.31;5025682;28;20048;-65
2023/04/20 08:45:10;;;;;;;8.65;7.75;;;;;;;19.92;65.11;99418.72;5029771;28;20033;-65
2023/04/20 08:47:37;;;;;;;8.75;6.65;;;;;;;19.76;62.33;99406.75;5027837;28;20061;-66
2023/04/20 08:50:03;;;;;;;9.75;8.07;;;;;;;19.97;63.91;99398.16;5030153;28;20038;-66
2023/04/20 08:52:28;;;;;;;9.77;7.80;;;;;;;19.98;61.04;99396.31;5029589;28;20033;-66
2023/04/20 08:54:54;;;;;;;8.68;7.85;;;;;;;20.00;62.69;99396.88;5031578;28;20034;-67
2023/04/20 08:57:20;;;;;;;9.88;8.27;;;;;;;20.05;63.13;99399.69;5030884;28;20748;-69
2023/04/20 08:59:45;;;;;;;10.10;8.00;;;;;;;20.08;63.15;99388.50;5029957;28;20037;-65
2023/04/20 09:02:12;;;;;;;8.82;7.35;;;;;;;20.14;62.19;99392.13;5029940;28;20050;-65
2023/04/20 09:04:39;;;;;;;9.05;7.60;;;;;;;20.11;60.02;99395.28;5029599;28;20033;-65
2023/04/20 09:07:05;;;;;;;9.88;7.50;;;;;;;19.83;60.28;99395.94;5027888;28;20135;-66
2023/04/20 09:09:31;;;;;;;8.93;6.95;;;;;;;19.90;61.62;99394.78;5029775;28;20033;-65
2023/04/20 09:12:05;;;;;;;11.27;7.32;;;;;;;20.12;62.67;99396.91;5028576;28;20034;-65
2023/04/20 09:14:45;;;;;;;7.55;6.60;;;;;;;20.19;61.78;99394.91;5026320;28;20033;-67
2023/04/20 09:17:13;;;;;;;8.82;6.70;;;;;;;20.33;61.01;99385.56;5029047;28;20100;-65
2023/04/20 09:19:40;;;;;;;6.80;6.00;;;;;;;20.32;57.24;99392.00;5029170;28;20064;-67
2023/04/20 09:22:05;;;;;;;8.38;7.32;;;;;;;20.47;59.34;99387.00;5029166;28;20044;-69
2023/04/20 09:24:35;;;;;;;10.55;6.80;;;;;;;20.36;58.75;99385.94;5030326;28;20239;-68
2023/04/20 09:27:22;;;;;;;11.10;7.20;;;;;;;20.13;57.83;99391.28;5031690;28;20025;-68
2023/04/20 09:29:58;;;;;;;11.05;7.00;;;;;;;20.13;57.85;99382.41;5032237;28;20108;-66
2023/04/20 09:32:25;;;;;;;8.38;6.93;;;;;;;20.05;58.87;99368.28;5033216;28;20041;-67
2023/04/20 09:34:50;;;;;;;9.57;7.35;;;;;;;19.81;59.52;99377.34;5030763;28;20405;-66
2023/04/20 09:37:16;;;;;;;8.52;7.32;;;;;;;19.81;61.16;99376.53;5035340;28;20250;-66
2023/04/20 09:39:43;;;;;;;7.82;6.97;;;;;;;19.88;61.10;99378.06;5029510;28;20363;-68
2023/04/20 09:42:12;;;;;;;12.15;7.85;;;;;;;19.92;62.35;99373.88;5033828;28;20209;-67
2023/04/20 09:44:39;;;;;;;8.88;7.05;;;;;;;19.87;62.90;99379.13;5033086;28;20187;-67
2023/04/20 09:47:06;;;;;;;10.32;7.10;;;;;;;19.81;59.82;99374.66;5033388;28;20307;-68
2023/04/20 09:49:32;;;;;;;8.18;7.00;;;;;;;19.94;61.07;99368.25;5030353;28;20025;-67
2023/04/20 09:52:01;;;;;;;9.70;7.28;;;;;;;20.02;60.08;99360.66;5030166;28;20059;-66
2023/04/20 09:54:27;;;;;;;6.95;6.25;;;;;;;19.97;60.02;99359.72;5030161;28;20036;-66
2023/04/20 09:56:53;;;;;;;8.00;6.00;;;;;;;19.99;58.72;99363.81;5031852;28;20049;-66
2023/04/20 09:59:20;;;;;;;9.48;7.18;;;;;;;20.12;60.10;99359.28;5032184;28;20429;-67
2023/04/20 10:01:46;;;;;;;7.50;6.25;;;;;;;20.19;59.63;99347.34;5031698;28;20072;-67
2023/04/20 10:04:13;;;;;;;7.38;6.50;;;;;;;20.26;56.59;99350.75;5033393;28;20343;-67
2023/04/20 10:06:39;;;;;;;8.75;7.38;;;;;;;20.28;59.10;99345.94;5032135;28;20038;-67
2023/04/20 10:09:06;;;;;;;13.13;7.03;;;;;;;20.32;55.72;99347.13;5033423;28;20037;-66
2023/04/20 10:11:39;;;;;;;6.82;6.13;;;;;;;20.37;55.22;99341.03;5031436;28;20025;-66
2023/04/20 10:14:24;;;;;;;6.53;5.90;;;;;;;20.34;57.76;99346.88;5032266;28;20044;-68
2023/04/20 10:17:01;;;;;;;7.50;6.70;;;;;;;20.35;56.43;99340.44;5032675;28;20104;-66
2023/04/20 10:19:43;;;;;;;7.82;6.45;;;;;;;20.34;58.13;99331.56;5030508;28;20042;-66
2023/04/20 10:22:12;;;;;;;7.75;6.07;;;;;;;20.48;56.56;99334.84;5029937;28;20414;-67
2023/04/20 10:24:38;;;;;;;8.82;7.05;;;;;;;20.54;56.53;99335.78;5035400;28;20046;-66
2023/04/20 10:27:18;;;;;;;7.20;6.07;;;;;;;20.54;54.95;99335.78;5030855;28;20037;-66
2023/04/20 10:29:44;;;;;;;7.28;5.85;;;;;;;20.38;50.32;99337.28;5029841;28;20037;-68
2023/04/20 10:32:24;;;;;;;7.30;5.38;;;;;;;20.07;50.57;99338.47;5030428;28;20036;-69
2023/04/20 10:35:01;;;;;;;7.47;6.70;;;;;;;19.95;51.57;99334.97;5031309;28;20038;-68
2023/04/20 10:37:27;;;;;;;7.97;6.35;;;;;;;20.12;49.68;99338.59;5029174;28;20033;-68
2023/04/20 10:39:53;;;;;;;7.63;6.43;;;;;;;20.18;50.68;99326.91;5030627;28;20331;-68
2023/04/20 10:42:18;;;;;;;7.32;6.38;;;;;;;20.28;54.08;99327.13;5029640;28;20092;-68
2023/04/20 10:44:51;;;;;;;7.38;6.47;;;;;;;20.35;54.21;99318.94;5031072;28;20369;-68
2023/04/20 10:47:25;;;;;;;7.25;6.40;;;;;;;20.46;54.08;99320.81;5027277;28;20091;-68
2023/04/20 10:49:54;;;;;;;7.53;6.85;;;;;;;20.48;53.75;99320.59;5030438;28;20064;-66
2023/04/20 10:52:35;;;;;;;6.95;6.25;;;;;;;20.46;52.59;99320.81;5029842;28;20039;-69
2023/04/20 10:55:02;;;;;;;8.38;6.75;;;;;;;20.53;53.01;99318.00;5028557;28;20038;-66
2023/04/20 10:57:29;;;;;;;7.75;6.63;;;;;;;20.52;53.15;99319.88;5030765;28;20038;-66
2023/04/20 10:59:54;;;;;;;9.65;6.03;;;;;;;20.52;51.53;99322.56;5029869;28;20060;-68
2023/04/20 11:02:20;;;;;;;9.18;6.20;;;;;;;20.44;50.85;99320.25;5031392;28;20392;-68
2023/04/20 11:04:46;;;;;;;8.05;7.28;;;;;;;20.49;53.36;99314.16;5028860;28;20045;-66
2023/04/20 11:07:14;;;;;;;8.45;6.28;;;;;;;20.52;51.13;99316.38;5031749;28;20299;-66
2023/04/20 11:09:41;;;;;;;6.70;6.00;;;;;;;20.34;55.05;99307.38;5030652;28;20064;-66
2023/04/20 11:12:10;;;;;;;7.45;6.25;;;;;;;20.19;56.82;99320.47;5030934;28;20042;-66
2023/04/20 11:14:39;;;;;;;7.43;6.18;;;;;;;20.28;54.57;99326.31;5031009;28;20040;-67
2023/04/20 11:17:05;;;;;;;7.18;6.40;;;;;;;20.03;55.42;99322.00;5029402;28;20053;-67
2023/04/20 11:19:35;;;;;;;7.60;6.15;;;;;;;20.19;55.02;99333.09;5030970;28;20029;-69